Time,TemperatureF,DewpointF,PressureIn,WindDirection,WindDirectionDegrees,WindSpeedMPH,WindSpeedGustMPH,Humidity,HourlyPrecipIn,Conditions,Clouds,dailyrainin,SolarRadiationWatts/m^2,SoftwareType,DateUTC
2013-05-11 00:01:00,58.1,55.2,29.91,SSE,165,0.0,1.0,90,0.00,,,0.00,0.0,meteohub,2013-05-11 04:01:00,
2013-05-11 00:02:00,58.1,55.2,29.91,SSE,165,0.0,1.0,90,0.00,,,0.00,0.0,meteohub,2013-05-11 04:02:00,
2013-05-11 00:08:00,57.7,55.2,29.91,SSE,165,0.0,1.0,91,0.00,,,0.00,0.0,meteohub,2013-05-11 04:08:00,
2013-05-11 00:13:00,57.7,55.2,29.91,SSE,165,0.0,1.0,91,0.00,,,0.00,0.0,meteohub,2013-05-11 04:13:00,
2013-05-11 00:18:00,57.6,55.0,29.91,SSE,165,0.0,0.0,91,0.00,,,0.00,0.0,meteohub,2013-05-11 04:18:00,
2013-05-11 00:23:00,57.4,54.9,29.91,SSE,165,0.0,0.0,91,0.00,,,0.00,0.0,meteohub,2013-05-11 04:23:00,
2013-05-11 00:28:00,57.4,55.0,29.91,SSE,165,0.0,0.0,92,0.00,,,0.00,0.0,meteohub,2013-05-11 04:28:00,
2013-05-11 00:33:00,57.4,54.9,29.91,SSE,165,0.0,0.0,91,0.00,,,0.00,0.0,meteohub,2013-05-11 04:33:00,
2013-05-11 00:38:00,57.0,54.7,29.91,SSE,165,0.0,0.0,92,0.00,,,0.00,0.0,meteohub,2013-05-11 04:38:00,
2013-05-11 00:43:00,57.2,54.9,29.91,SSE,165,0.0,0.0,92,0.00,,,0.00,0.0,meteohub,2013-05-11 04:43:00,
2013-05-11 00:49:00,57.0,54.7,29.91,SSE,165,0.0,0.0,92,0.00,,,0.00,0.0,meteohub,2013-05-11 04:49:00,
2013-05-11 00:54:00,56.8,54.5,29.90,SSE,165,0.0,1.0,92,0.00,,,0.00,0.0,meteohub,2013-05-11 04:54:00,
2013-05-11 00:59:00,57.0,54.7,29.90,SSE,165,0.0,1.0,92,0.00,,,0.00,0.0,meteohub,2013-05-11 04:59:00,
2013-05-11 01:04:00,57.0,54.7,29.90,SSE,165,0.0,1.0,92,0.00,,,0.00,0.0,meteohub,2013-05-11 05:04:00,
2013-05-11 01:09:00,57.0,54.7,29.90,SSE,165,0.0,1.0,92,0.00,,,0.00,0.0,meteohub,2013-05-11 05:09:00,
2013-05-11 01:14:00,57.0,55.0,29.89,SSE,165,0.0,1.0,93,0.00,,,0.00,0.0,meteohub,2013-05-11 05:14:00,
2013-05-11 01:19:00,57.4,55.4,29.89,SSE,165,0.0,0.0,93,0.00,,,0.00,0.0,meteohub,2013-05-11 05:19:00,
2013-05-11 01:24:00,57.4,55.0,29.88,SSE,165,0.0,0.0,92,0.00,,,0.00,0.0,meteohub,2013-05-11 05:24:00,
2013-05-11 01:30:00,57.4,55.0,29.88,SSE,165,0.0,0.0,92,0.00,,,0.00,0.0,meteohub,2013-05-11 05:30:00,
2013-05-11 01:35:00,57.4,55.0,29.88,SSE,165,0.0,0.0,92,0.00,,,0.00,0.0,meteohub,2013-05-11 05:35:00,
2013-05-11 01:40:00,57.2,54.9,29.88,SSE,165,0.0,1.0,92,0.00,,,0.00,0.0,meteohub,2013-05-11 05:40:00,
2013-05-11 01:45:00,57.0,55.0,29.88,SSE,165,0.0,1.0,93,0.00,,,0.00,0.0,meteohub,2013-05-11 05:45:00,
2013-05-11 01:50:00,57.0,55.0,29.87,SSE,165,1.0,1.0,93,0.00,,,0.00,0.0,meteohub,2013-05-11 05:50:00,
2013-05-11 01:55:00,57.2,55.2,29.87,SSE,165,0.0,2.0,93,0.00,,,0.00,0.0,meteohub,2013-05-11 05:55:00,
2013-05-11 02:00:00,57.2,55.2,29.86,SSE,165,0.0,4.0,93,0.00,,,0.00,0.0,meteohub,2013-05-11 06:00:00,
2013-05-11 02:05:00,57.4,55.4,29.86,SSE,165,0.0,4.0,93,0.00,,,0.00,0.0,meteohub,2013-05-11 06:05:00,
2013-05-11 02:11:00,57.4,55.4,29.86,SSE,165,0.0,4.0,93,0.00,,,0.00,0.0,meteohub,2013-05-11 06:11:00,
2013-05-11 02:16:00,57.4,55.4,29.86,SSE,165,0.0,4.0,93,0.00,,,0.00,0.0,meteohub,2013-05-11 06:16:00,
2013-05-11 02:21:00,57.4,55.4,29.86,SSE,165,0.0,4.0,93,0.00,,,0.00,0.0,meteohub,2013-05-11 06:21:00,
2013-05-11 02:26:00,57.4,55.4,29.86,SSE,165,0.0,2.0,93,0.00,,,0.00,0.0,meteohub,2013-05-11 06:26:00,
2013-05-11 02:31:00,57.4,55.6,29.86,SSE,165,0.0,2.0,94,0.00,,,0.00,0.0,meteohub,2013-05-11 06:31:00,
2013-05-11 02:36:00,57.6,55.8,29.86,SSE,165,0.0,1.0,94,0.00,,,0.00,0.0,meteohub,2013-05-11 06:36:00,
2013-05-11 02:41:00,57.6,55.6,29.86,SSE,165,0.0,1.0,93,0.00,,,0.00,0.0,meteohub,2013-05-11 06:41:00,
2013-05-11 02:46:00,57.6,55.6,29.86,SSE,165,0.0,1.0,93,0.00,,,0.00,0.0,meteohub,2013-05-11 06:46:00,
2013-05-11 02:51:00,57.6,55.8,29.85,SSE,165,0.0,4.0,94,0.00,,,0.00,0.0,meteohub,2013-05-11 06:51:00,
2013-05-11 02:57:00,57.7,55.9,29.85,SSE,165,0.0,4.0,94,0.00,,,0.00,0.0,meteohub,2013-05-11 06:57:00,
2013-05-11 03:02:00,57.7,55.8,29.85,SSE,165,0.0,4.0,93,0.00,,,0.00,0.0,meteohub,2013-05-11 07:02:00,
2013-05-11 03:07:00,57.7,55.8,29.84,SSE,165,0.0,1.0,93,0.00,,,0.00,0.0,meteohub,2013-05-11 07:07:00,
2013-05-11 03:12:00,57.7,55.8,29.86,South,179,2.0,0.0,93,0.00,,,0.00,0.0,meteohub,2013-05-11 07:12:00,
2013-05-11 03:17:00,57.6,55.6,29.86,SSW,201,0.0,6.0,93,0.00,,,0.00,0.0,meteohub,2013-05-11 07:17:00,
2013-05-11 03:22:00,57.6,55.8,29.87,South,170,1.0,6.0,94,0.00,,,0.00,0.0,meteohub,2013-05-11 07:22:00,
2013-05-11 03:27:00,57.6,55.8,29.85,South,169,2.0,6.0,94,0.01,,,0.01,0.0,meteohub,2013-05-11 07:27:00,
2013-05-11 03:32:00,57.6,55.8,29.83,ESE,104,1.0,5.0,94,0.01,,,0.01,0.0,meteohub,2013-05-11 07:32:00,
2013-05-11 03:37:00,57.6,55.8,29.83,East,82,1.0,5.0,94,0.02,,,0.02,0.0,meteohub,2013-05-11 07:37:00,
2013-05-11 03:42:00,57.4,55.6,29.86,SSE,159,2.0,5.0,94,0.02,,,0.02,0.0,meteohub,2013-05-11 07:42:00,
2013-05-11 03:47:00,57.4,55.6,29.86,SSW,212,1.0,5.0,94,0.03,,,0.03,0.0,meteohub,2013-05-11 07:47:00,
2013-05-11 03:52:00,57.2,55.4,29.86,SSW,212,0.0,5.0,94,0.04,,,0.04,0.0,meteohub,2013-05-11 07:52:00,
2013-05-11 03:57:00,57.4,55.6,29.85,SE,134,0.0,5.0,94,0.05,,,0.05,0.0,meteohub,2013-05-11 07:57:00,
2013-05-11 04:02:00,57.4,55.6,29.84,SE,134,2.0,2.0,94,0.05,,,0.05,0.0,meteohub,2013-05-11 08:02:00,
2013-05-11 04:07:00,57.0,55.2,29.84,South,175,2.0,5.0,94,0.05,,,0.05,0.0,meteohub,2013-05-11 08:07:00,
2013-05-11 04:12:00,57.0,55.6,29.84,SE,144,0.0,6.0,95,0.05,,,0.05,0.0,meteohub,2013-05-11 08:12:00,
2013-05-11 04:17:00,56.8,55.4,29.83,SE,144,5.0,6.0,95,0.05,,,0.05,0.0,meteohub,2013-05-11 08:17:00,
2013-05-11 04:22:00,56.7,55.0,29.83,SE,145,0.0,6.0,94,0.05,,,0.05,0.0,meteohub,2013-05-11 08:22:00,
2013-05-11 04:27:00,56.5,54.9,29.84,SSE,165,4.0,6.0,94,0.04,,,0.05,0.0,meteohub,2013-05-11 08:27:00,
2013-05-11 04:32:00,56.3,54.9,29.83,South,173,0.0,6.0,95,0.03,,,0.05,0.0,meteohub,2013-05-11 08:32:00,
2013-05-11 04:37:00,56.1,54.5,29.83,South,173,0.0,6.0,94,0.03,,,0.05,0.0,meteohub,2013-05-11 08:37:00,
2013-05-11 04:42:00,56.3,54.9,29.82,South,173,0.0,6.0,95,0.02,,,0.05,0.0,meteohub,2013-05-11 08:42:00,
2013-05-11 04:47:00,56.5,55.0,29.82,South,173,0.0,4.0,95,0.01,,,0.05,0.0,meteohub,2013-05-11 08:47:00,
2013-05-11 04:52:00,56.5,55.0,29.81,South,173,0.0,2.0,95,0.00,,,0.05,0.0,meteohub,2013-05-11 08:52:00,
2013-05-11 04:57:00,56.7,55.2,29.81,South,173,0.0,2.0,95,0.00,,,0.05,0.0,meteohub,2013-05-11 08:57:00,
2013-05-11 05:02:00,56.7,55.2,29.82,South,173,0.0,2.0,95,0.00,,,0.05,0.0,meteohub,2013-05-11 09:02:00,
2013-05-11 05:07:00,56.5,55.0,29.83,South,173,0.0,2.0,95,0.00,,,0.05,0.0,meteohub,2013-05-11 09:07:00,
2013-05-11 05:12:00,56.5,55.0,29.83,South,173,0.0,2.0,95,0.00,,,0.05,0.0,meteohub,2013-05-11 09:12:00,
2013-05-11 05:17:00,56.5,55.0,29.83,South,173,0.0,2.0,95,0.00,,,0.05,0.0,meteohub,2013-05-11 09:17:00,
2013-05-11 05:22:00,56.5,55.0,29.83,South,173,0.0,4.0,95,0.00,,,0.05,0.0,meteohub,2013-05-11 09:22:00,
2013-05-11 05:27:00,56.5,55.0,29.83,South,173,0.0,4.0,95,0.00,,,0.05,0.0,meteohub,2013-05-11 09:27:00,
2013-05-11 05:32:00,56.5,55.0,29.83,South,173,0.0,4.0,95,0.00,,,0.05,0.0,meteohub,2013-05-11 09:32:00,
2013-05-11 05:37:00,56.3,54.9,29.84,South,173,0.0,4.0,95,0.00,,,0.05,0.0,meteohub,2013-05-11 09:37:00,
2013-05-11 05:42:00,56.3,54.9,29.84,South,173,0.0,2.0,95,0.00,,,0.05,0.0,meteohub,2013-05-11 09:42:00,
2013-05-11 05:47:00,56.5,55.0,29.84,South,173,0.0,2.0,95,0.00,,,0.05,0.0,meteohub,2013-05-11 09:47:00,
2013-05-11 05:52:00,56.7,55.6,29.84,South,173,0.0,2.0,96,0.01,,,0.06,0.0,meteohub,2013-05-11 09:52:00,
2013-05-11 05:57:00,56.8,55.4,29.84,South,173,0.0,1.0,95,0.01,,,0.06,5.0,meteohub,2013-05-11 09:57:00,
2013-05-11 06:02:00,56.8,55.4,29.84,South,173,2.0,2.0,95,0.01,,,0.06,5.0,meteohub,2013-05-11 10:02:00,
2013-05-11 06:07:00,56.8,55.4,29.84,South,169,0.0,2.0,95,0.01,,,0.06,9.0,meteohub,2013-05-11 10:07:00,
2013-05-11 06:12:00,56.8,55.4,29.84,South,169,0.0,2.0,95,0.01,,,0.06,11.0,meteohub,2013-05-11 10:12:00,
2013-05-11 06:17:00,57.0,55.9,29.84,South,169,0.0,2.0,96,0.01,,,0.06,12.0,meteohub,2013-05-11 10:17:00,
2013-05-11 06:22:00,57.4,56.3,29.83,South,169,0.0,4.0,96,0.01,,,0.06,19.0,meteohub,2013-05-11 10:22:00,
2013-05-11 06:27:00,57.6,56.5,29.83,South,169,2.0,4.0,96,0.01,,,0.06,23.0,meteohub,2013-05-11 10:27:00,
2013-05-11 06:32:00,57.6,56.5,29.83,SSE,167,0.0,4.0,96,0.01,,,0.06,28.0,meteohub,2013-05-11 10:32:00,
2013-05-11 06:37:00,57.9,56.8,29.83,South,169,0.0,4.0,96,0.01,,,0.06,33.0,meteohub,2013-05-11 10:37:00,
2013-05-11 06:42:00,58.3,57.2,29.83,South,169,0.0,6.0,96,0.01,,,0.06,40.0,meteohub,2013-05-11 10:42:00,
2013-05-11 06:47:00,58.5,57.4,29.82,South,169,0.0,6.0,96,0.00,,,0.06,39.0,meteohub,2013-05-11 10:47:00,
2013-05-11 06:52:00,58.5,57.4,29.83,South,169,0.0,4.0,96,0.00,,,0.06,33.0,meteohub,2013-05-11 10:52:00,
2013-05-11 06:57:00,58.5,57.4,29.83,South,169,0.0,4.0,96,0.00,,,0.06,32.0,meteohub,2013-05-11 10:57:00,
2013-05-11 07:02:00,58.6,57.6,29.83,South,169,2.0,4.0,96,0.00,,,0.06,37.0,meteohub,2013-05-11 11:02:00,
2013-05-11 07:07:00,58.6,57.6,29.83,South,169,0.0,4.0,96,0.00,,,0.06,44.0,meteohub,2013-05-11 11:07:00,
2013-05-11 07:12:00,58.8,57.7,29.83,South,169,0.0,4.0,96,0.00,,,0.06,35.0,meteohub,2013-05-11 11:12:00,
2013-05-11 07:17:00,59.2,58.1,29.83,SE,128,2.0,4.0,96,0.00,,,0.06,37.0,meteohub,2013-05-11 11:17:00,
2013-05-11 07:22:00,59.4,58.3,29.82,SSE,162,5.0,5.0,96,0.00,,,0.06,54.0,meteohub,2013-05-11 11:22:00,
2013-05-11 07:27:00,59.5,58.5,29.82,SSE,163,2.0,7.0,96,0.00,,,0.06,51.0,meteohub,2013-05-11 11:27:00,
2013-05-11 07:32:00,59.7,58.6,29.82,South,169,4.0,8.0,96,0.00,,,0.06,63.0,meteohub,2013-05-11 11:32:00,
2013-05-11 07:37:00,59.7,58.6,29.82,SE,133,5.0,8.0,96,0.00,,,0.06,44.0,meteohub,2013-05-11 11:37:00,
2013-05-11 07:42:00,59.7,58.6,29.82,SE,145,1.0,8.0,96,0.00,,,0.06,53.0,meteohub,2013-05-11 11:42:00,
2013-05-11 07:47:00,59.9,58.8,29.82,SE,144,0.0,7.0,96,0.00,,,0.06,51.0,meteohub,2013-05-11 11:47:00,
2013-05-11 07:52:00,59.9,58.8,29.82,South,185,2.0,7.0,96,0.00,,,0.06,53.0,meteohub,2013-05-11 11:52:00,
2013-05-11 07:57:00,60.1,58.6,29.82,South,170,1.0,7.0,95,0.00,,,0.06,39.0,meteohub,2013-05-11 11:57:00,
2013-05-11 08:02:00,60.1,58.6,29.83,SSW,209,6.0,7.0,95,0.00,,,0.06,49.0,meteohub,2013-05-11 12:02:00,
2013-05-11 08:07:00,60.1,58.6,29.83,SW,220,3.0,10.0,95,0.00,,,0.06,74.0,meteohub,2013-05-11 12:07:00,
2013-05-11 08:12:00,60.1,58.6,29.83,SW,219,6.0,12.0,95,0.00,,,0.06,107.0,meteohub,2013-05-11 12:12:00,
2013-05-11 08:17:00,60.1,58.6,29.83,SSW,192,8.0,12.0,95,0.00,,,0.06,113.0,meteohub,2013-05-11 12:17:00,
2013-05-11 08:22:00,60.3,58.8,29.83,South,173,4.0,12.0,95,0.00,,,0.06,98.0,meteohub,2013-05-11 12:22:00,
2013-05-11 08:27:00,60.3,58.8,29.83,SSE,165,5.0,11.0,95,0.00,,,0.06,111.0,meteohub,2013-05-11 12:27:00,
2013-05-11 08:32:00,60.3,58.8,29.83,SSE,165,4.0,10.0,95,0.00,,,0.06,127.0,meteohub,2013-05-11 12:32:00,
2013-05-11 08:37:00,60.3,58.8,29.83,SSW,193,2.0,10.0,95,0.00,,,0.06,155.0,meteohub,2013-05-11 12:37:00,
2013-05-11 08:42:00,60.3,58.8,29.83,SSW,202,3.0,12.0,95,0.00,,,0.06,114.0,meteohub,2013-05-11 12:42:00,
2013-05-11 08:47:00,60.3,58.5,29.83,SSE,157,1.0,12.0,94,0.01,,,0.07,162.0,meteohub,2013-05-11 12:47:00,
2013-05-11 08:52:00,60.3,58.8,29.83,SSE,166,4.0,12.0,95,0.01,,,0.07,176.0,meteohub,2013-05-11 12:52:00,
2013-05-11 08:57:00,60.4,58.6,29.83,South,186,4.0,11.0,94,0.01,,,0.07,244.0,meteohub,2013-05-11 12:57:00,
2013-05-11 09:02:00,60.4,58.6,29.83,South,173,4.0,11.0,94,0.01,,,0.07,197.0,meteohub,2013-05-11 13:02:00,
2013-05-11 09:07:00,60.6,58.8,29.83,South,171,1.0,10.0,94,0.01,,,0.07,214.0,meteohub,2013-05-11 13:07:00,
2013-05-11 09:12:00,60.6,58.8,29.83,SSE,148,1.0,10.0,94,0.01,,,0.07,309.0,meteohub,2013-05-11 13:12:00,
2013-05-11 09:17:00,61.2,59.4,29.83,South,190,2.0,8.0,94,0.01,,,0.07,309.0,meteohub,2013-05-11 13:17:00,
2013-05-11 09:22:00,61.3,59.5,29.83,South,173,4.0,11.0,94,0.01,,,0.07,209.0,meteohub,2013-05-11 13:22:00,
2013-05-11 09:27:00,61.5,59.7,29.83,South,180,1.0,14.0,94,0.01,,,0.07,206.0,meteohub,2013-05-11 13:27:00,
2013-05-11 09:32:00,61.7,59.7,29.82,SE,140,2.0,14.0,93,0.01,,,0.07,251.0,meteohub,2013-05-11 13:32:00,
2013-05-11 09:37:00,61.9,59.9,29.82,South,169,1.0,13.0,93,0.01,,,0.07,297.0,meteohub,2013-05-11 13:37:00,
2013-05-11 09:42:00,62.1,60.1,29.82,SSW,213,3.0,10.0,93,0.01,,,0.07,383.0,meteohub,2013-05-11 13:42:00,
2013-05-11 09:47:00,62.4,60.4,29.81,SSE,165,2.0,8.0,93,0.00,,,0.07,381.0,meteohub,2013-05-11 13:47:00,
2013-05-11 09:52:00,62.8,60.4,29.81,SSW,207,4.0,10.0,92,0.00,,,0.07,257.0,meteohub,2013-05-11 13:52:00,
2013-05-11 09:57:00,63.0,60.6,29.81,SSW,200,9.0,12.0,92,0.00,,,0.07,257.0,meteohub,2013-05-11 13:57:00,
2013-05-11 10:02:00,63.0,60.3,29.81,South,184,4.0,13.0,91,0.00,,,0.07,320.0,meteohub,2013-05-11 14:02:00,
2013-05-11 10:07:00,63.1,60.4,29.81,SSW,193,3.0,13.0,91,0.00,,,0.07,290.0,meteohub,2013-05-11 14:07:00,
2013-05-11 10:12:00,63.3,60.6,29.81,SSW,201,7.0,11.0,91,0.00,,,0.07,225.0,meteohub,2013-05-11 14:12:00,
2013-05-11 10:17:00,63.5,60.8,29.82,South,172,4.0,10.0,91,0.00,,,0.07,227.0,meteohub,2013-05-11 14:17:00,
2013-05-11 10:22:00,63.7,60.6,29.82,South,180,4.0,9.0,90,0.00,,,0.07,183.0,meteohub,2013-05-11 14:22:00,
2013-05-11 10:27:00,63.7,60.6,29.81,South,188,3.0,8.0,90,0.00,,,0.07,155.0,meteohub,2013-05-11 14:27:00,
2013-05-11 10:32:00,63.7,60.6,29.82,South,180,1.0,10.0,90,0.00,,,0.07,134.0,meteohub,2013-05-11 14:32:00,
2013-05-11 10:37:00,63.7,60.4,29.82,South,170,2.0,10.0,89,0.00,,,0.07,176.0,meteohub,2013-05-11 14:37:00,
2013-05-11 10:42:00,63.1,60.1,29.82,SSE,166,4.0,9.0,90,0.00,,,0.07,230.0,meteohub,2013-05-11 14:42:00,
2013-05-11 10:47:00,62.8,59.7,29.81,SSE,157,4.0,9.0,90,0.00,,,0.07,244.0,meteohub,2013-05-11 14:47:00,
2013-05-11 10:52:00,62.6,59.5,29.81,South,174,5.0,9.0,90,0.00,,,0.07,216.0,meteohub,2013-05-11 14:52:00,
2013-05-11 10:57:00,62.8,60.1,29.81,SSE,158,2.0,8.0,91,0.01,,,0.08,149.0,meteohub,2013-05-11 14:57:00,
2013-05-11 11:02:00,62.8,60.1,29.81,ESE,116,1.0,7.0,91,0.01,,,0.08,236.0,meteohub,2013-05-11 15:02:00,
2013-05-11 11:07:00,63.0,60.3,29.81,South,184,3.0,6.0,91,0.01,,,0.08,294.0,meteohub,2013-05-11 15:07:00,
2013-05-11 11:12:00,63.1,60.4,29.81,SSW,197,6.0,6.0,91,0.01,,,0.08,269.0,meteohub,2013-05-11 15:12:00,
2013-05-11 11:17:00,63.1,60.8,29.81,SSW,194,3.0,10.0,92,0.01,,,0.08,116.0,meteohub,2013-05-11 15:17:00,
2013-05-11 11:22:00,63.3,60.6,29.82,South,181,2.0,10.0,91,0.01,,,0.08,62.0,meteohub,2013-05-11 15:22:00,
2013-05-11 11:27:00,63.0,60.3,29.82,SSE,164,2.0,10.0,91,0.01,,,0.08,39.0,meteohub,2013-05-11 15:27:00,
2013-05-11 11:32:00,62.8,60.1,29.82,South,182,3.0,8.0,91,0.03,,,0.10,37.0,meteohub,2013-05-11 15:32:00,
2013-05-11 11:37:00,61.7,59.0,29.82,SSE,157,4.0,8.0,91,0.05,,,0.12,33.0,meteohub,2013-05-11 15:37:00,
2013-05-11 11:42:00,61.3,59.0,29.82,SSE,154,5.0,10.0,92,0.11,,,0.18,54.0,meteohub,2013-05-11 15:42:00,
2013-05-11 11:47:00,61.2,59.2,29.81,SSE,161,5.0,12.0,93,0.14,,,0.21,74.0,meteohub,2013-05-11 15:47:00,
2013-05-11 11:52:00,61.2,59.2,29.81,SSW,207,3.0,12.0,93,0.14,,,0.22,86.0,meteohub,2013-05-11 15:52:00,
2013-05-11 11:57:00,61.2,59.4,29.81,SSE,160,4.0,12.0,94,0.16,,,0.24,102.0,meteohub,2013-05-11 15:57:00,
2013-05-11 12:02:00,60.8,58.8,29.82,SSE,166,4.0,14.0,93,0.17,,,0.25,113.0,meteohub,2013-05-11 16:02:00,
2013-05-11 12:07:00,60.6,58.8,29.81,SE,146,6.0,14.0,94,0.17,,,0.25,107.0,meteohub,2013-05-11 16:07:00,
2013-05-11 12:12:00,60.6,58.8,29.81,South,172,9.0,14.0,94,0.18,,,0.26,63.0,meteohub,2013-05-11 16:12:00,
2013-05-11 12:17:00,60.6,58.8,29.81,SSW,202,5.0,11.0,94,0.18,,,0.26,146.0,meteohub,2013-05-11 16:17:00,
2013-05-11 12:22:00,60.6,58.8,29.81,SE,139,6.0,11.0,94,0.18,,,0.26,163.0,meteohub,2013-05-11 16:22:00,
2013-05-11 12:27:00,61.0,59.2,29.81,SW,217,1.0,14.0,94,0.18,,,0.26,221.0,meteohub,2013-05-11 16:27:00,
2013-05-11 12:32:00,61.0,59.0,29.81,SW,215,3.0,14.0,93,0.16,,,0.26,172.0,meteohub,2013-05-11 16:32:00,
2013-05-11 12:37:00,61.0,59.0,29.80,South,177,5.0,14.0,93,0.11,,,0.26,186.0,meteohub,2013-05-11 16:37:00,
2013-05-11 12:42:00,61.0,59.0,29.80,SE,136,7.0,12.0,93,0.07,,,0.26,188.0,meteohub,2013-05-11 16:42:00,
2013-05-11 12:47:00,60.6,58.6,29.80,South,186,4.0,12.0,93,0.05,,,0.26,116.0,meteohub,2013-05-11 16:47:00,
2013-05-11 12:52:00,60.4,58.5,29.80,WSW,242,5.0,11.0,93,0.03,,,0.26,102.0,meteohub,2013-05-11 16:52:00,
2013-05-11 12:57:00,60.3,58.3,29.80,South,178,5.0,11.0,93,0.01,,,0.26,128.0,meteohub,2013-05-11 16:57:00,
2013-05-11 13:02:00,60.3,58.3,29.80,SSE,152,7.0,10.0,93,0.01,,,0.26,244.0,meteohub,2013-05-11 17:02:00,
2013-05-11 13:07:00,60.4,58.6,29.80,SW,218,5.0,10.0,94,0.01,,,0.26,258.0,meteohub,2013-05-11 17:07:00,
2013-05-11 13:12:00,60.4,58.5,29.80,South,188,9.0,9.0,93,0.00,,,0.26,301.0,meteohub,2013-05-11 17:12:00,
2013-05-11 13:17:00,61.0,59.2,29.80,SSW,202,4.0,12.0,94,0.00,,,0.26,346.0,meteohub,2013-05-11 17:17:00,
2013-05-11 13:23:00,61.3,59.5,29.80,South,172,8.0,13.0,94,0.00,,,0.26,239.0,meteohub,2013-05-11 17:23:00,
2013-05-11 13:28:00,61.5,59.5,29.80,South,182,4.0,13.0,93,0.00,,,0.26,163.0,meteohub,2013-05-11 17:28:00,
2013-05-11 13:33:00,61.9,59.9,29.80,South,176,5.0,14.0,93,0.00,,,0.26,186.0,meteohub,2013-05-11 17:33:00,
2013-05-11 13:38:00,61.7,59.7,29.80,SW,216,7.0,14.0,93,0.00,,,0.26,144.0,meteohub,2013-05-11 17:38:00,
2013-05-11 13:43:00,61.3,59.0,29.79,SSW,195,5.0,13.0,92,0.00,,,0.26,84.0,meteohub,2013-05-11 17:43:00,
2013-05-11 13:48:00,61.2,58.8,29.79,South,190,5.0,13.0,92,0.00,,,0.26,53.0,meteohub,2013-05-11 17:48:00,
2013-05-11 13:53:00,61.0,58.6,29.79,South,184,5.0,13.0,92,0.00,,,0.26,65.0,meteohub,2013-05-11 17:53:00,
2013-05-11 13:58:00,60.8,58.5,29.78,SSW,194,0.0,11.0,92,0.00,,,0.26,56.0,meteohub,2013-05-11 17:58:00,
2013-05-11 14:04:00,60.8,58.5,29.78,South,186,2.0,11.0,92,0.00,,,0.26,58.0,meteohub,2013-05-11 18:04:00,
2013-05-11 14:09:00,60.6,58.3,29.78,South,186,7.0,8.0,92,0.00,,,0.26,95.0,meteohub,2013-05-11 18:09:00,
2013-05-11 14:14:00,61.0,58.6,29.78,SSW,202,2.0,10.0,92,0.00,,,0.26,97.0,meteohub,2013-05-11 18:14:00,
2013-05-11 14:19:00,61.2,58.8,29.77,South,172,6.0,10.0,92,0.00,,,0.26,98.0,meteohub,2013-05-11 18:19:00,
2013-05-11 14:24:00,61.3,59.0,29.77,SSW,202,9.0,10.0,92,0.00,,,0.26,76.0,meteohub,2013-05-11 18:24:00,
2013-05-11 14:29:00,61.5,59.2,29.77,SSE,160,4.0,10.0,92,0.00,,,0.26,86.0,meteohub,2013-05-11 18:29:00,
2013-05-11 14:34:00,62.1,59.7,29.77,SSE,165,4.0,10.0,92,0.00,,,0.26,93.0,meteohub,2013-05-11 18:34:00,
2013-05-11 14:39:00,62.1,59.7,29.77,South,169,4.0,13.0,92,0.00,,,0.26,91.0,meteohub,2013-05-11 18:39:00,
2013-05-11 14:45:00,61.9,59.5,29.76,South,180,7.0,13.0,92,0.00,,,0.26,93.0,meteohub,2013-05-11 18:45:00,
2013-05-11 14:50:00,61.7,59.4,29.76,SSE,163,4.0,13.0,92,0.00,,,0.26,88.0,meteohub,2013-05-11 18:50:00,
2013-05-11 14:55:00,61.5,59.2,29.76,SSE,159,8.0,12.0,92,0.00,,,0.26,109.0,meteohub,2013-05-11 18:55:00,
2013-05-11 15:00:00,61.7,59.7,29.75,South,177,7.0,12.0,93,0.00,,,0.26,123.0,meteohub,2013-05-11 19:00:00,
2013-05-11 15:05:00,62.1,60.1,29.75,SSE,157,9.0,12.0,93,0.00,,,0.26,200.0,meteohub,2013-05-11 19:05:00,
2013-05-11 15:10:00,62.4,60.4,29.75,SSE,167,6.0,13.0,93,0.00,,,0.26,591.0,meteohub,2013-05-11 19:10:00,
2013-05-11 15:15:00,63.0,61.0,29.75,South,178,7.0,13.0,93,0.00,,,0.26,568.0,meteohub,2013-05-11 19:15:00,
2013-05-11 15:20:00,63.1,60.8,29.75,SSW,193,8.0,13.0,92,0.00,,,0.26,598.0,meteohub,2013-05-11 19:20:00,
2013-05-11 15:26:00,64.0,61.7,29.74,South,174,8.0,11.0,92,0.00,,,0.26,610.0,meteohub,2013-05-11 19:26:00,
2013-05-11 15:31:00,64.9,62.2,29.74,SSE,163,4.0,13.0,91,0.00,,,0.26,747.0,meteohub,2013-05-11 19:31:00,
2013-05-11 15:36:00,64.9,61.7,29.74,SSW,206,5.0,13.0,89,0.00,,,0.26,315.0,meteohub,2013-05-11 19:36:00,
2013-05-11 15:41:00,64.9,61.9,29.74,SE,141,2.0,16.0,90,0.00,,,0.26,297.0,meteohub,2013-05-11 19:41:00,
2013-05-11 15:46:00,65.1,61.9,29.74,South,181,2.0,16.0,89,0.00,,,0.26,323.0,meteohub,2013-05-11 19:46:00,
2013-05-11 15:51:00,65.1,61.5,29.73,South,169,8.0,16.0,88,0.00,,,0.26,376.0,meteohub,2013-05-11 19:51:00,
2013-05-11 15:56:00,65.1,61.5,29.73,SSE,167,10.0,14.0,88,0.00,,,0.26,388.0,meteohub,2013-05-11 19:56:00,
2013-05-11 16:01:00,64.8,61.2,29.73,SSE,163,6.0,14.0,88,0.00,,,0.26,425.0,meteohub,2013-05-11 20:01:00,
2013-05-11 16:07:00,64.6,61.0,29.73,SSE,168,7.0,16.0,88,0.00,,,0.26,200.0,meteohub,2013-05-11 20:07:00,
2013-05-11 16:12:00,64.4,61.2,29.73,SSW,197,7.0,16.0,89,0.00,,,0.26,267.0,meteohub,2013-05-11 20:12:00,
2013-05-11 16:17:00,64.4,60.8,29.73,South,182,6.0,16.0,88,0.00,,,0.26,251.0,meteohub,2013-05-11 20:17:00,
2013-05-11 16:22:00,64.0,60.8,29.74,SSE,166,4.0,13.0,89,0.00,,,0.26,204.0,meteohub,2013-05-11 20:22:00,
2013-05-11 16:27:00,64.2,61.0,29.73,SSE,164,6.0,13.0,89,0.00,,,0.26,167.0,meteohub,2013-05-11 20:27:00,
2013-05-11 16:32:00,64.0,60.8,29.74,SSE,165,9.0,13.0,89,0.00,,,0.26,93.0,meteohub,2013-05-11 20:32:00,
2013-05-11 16:37:00,63.5,59.9,29.75,SSE,167,5.0,10.0,88,0.00,,,0.26,39.0,meteohub,2013-05-11 20:37:00,
2013-05-11 16:42:00,63.1,59.9,29.75,SSW,196,9.0,11.0,89,0.00,,,0.26,47.0,meteohub,2013-05-11 20:42:00,
2013-05-11 16:47:00,63.0,59.9,29.75,SSW,201,14.0,14.0,90,0.00,,,0.26,40.0,meteohub,2013-05-11 20:47:00,
2013-05-11 16:52:00,62.6,59.5,29.75,South,178,4.0,18.0,90,0.00,,,0.26,18.0,meteohub,2013-05-11 20:52:00,
2013-05-11 16:57:00,62.4,59.4,29.75,SSW,209,6.0,18.0,90,0.00,,,0.26,18.0,meteohub,2013-05-11 20:57:00,
2013-05-11 17:02:00,62.1,59.4,29.76,South,181,13.0,19.0,91,0.00,,,0.26,7.0,meteohub,2013-05-11 21:02:00,
2013-05-11 17:07:00,62.1,59.4,29.77,SW,219,10.0,19.0,91,0.00,,,0.26,0.0,meteohub,2013-05-11 21:07:00,
2013-05-11 17:12:00,61.7,59.0,29.78,SW,217,9.0,18.0,91,0.00,,,0.26,0.0,meteohub,2013-05-11 21:12:00,
2013-05-11 17:17:00,61.5,59.2,29.78,SW,231,5.0,18.0,92,0.04,,,0.30,0.0,meteohub,2013-05-11 21:17:00,
2013-05-11 17:22:00,61.3,59.4,29.78,SSW,196,7.0,18.0,93,0.05,,,0.31,5.0,meteohub,2013-05-11 21:22:00,
2013-05-11 17:27:00,61.2,59.2,29.77,SSW,213,5.0,18.0,93,0.06,,,0.32,7.0,meteohub,2013-05-11 21:27:00,
2013-05-11 17:32:00,60.8,58.8,29.76,South,182,4.0,14.0,93,0.07,,,0.33,11.0,meteohub,2013-05-11 21:32:00,
2013-05-11 17:37:00,60.6,58.6,29.77,SE,143,2.0,13.0,93,0.08,,,0.34,21.0,meteohub,2013-05-11 21:37:00,
2013-05-11 17:42:00,60.6,58.8,29.77,South,174,5.0,13.0,94,0.10,,,0.36,28.0,meteohub,2013-05-11 21:42:00,
2013-05-11 17:47:00,60.4,58.6,29.75,South,174,4.0,9.0,94,0.12,,,0.37,14.0,meteohub,2013-05-11 21:47:00,
2013-05-11 17:52:00,60.4,58.6,29.75,South,175,4.0,9.0,94,0.13,,,0.39,21.0,meteohub,2013-05-11 21:52:00,
2013-05-11 17:57:00,60.4,59.0,29.75,South,191,5.0,8.0,95,0.14,,,0.40,21.0,meteohub,2013-05-11 21:57:00,
2013-05-11 18:02:00,60.4,59.0,29.75,South,186,0.0,8.0,95,0.14,,,0.40,12.0,meteohub,2013-05-11 22:02:00,
2013-05-11 18:07:00,60.6,59.2,29.75,SSW,205,4.0,9.0,95,0.16,,,0.42,21.0,meteohub,2013-05-11 22:07:00,
2013-05-11 18:12:00,60.8,59.4,29.74,South,184,0.0,9.0,95,0.16,,,0.43,23.0,meteohub,2013-05-11 22:12:00,
2013-05-11 18:17:00,61.2,59.7,29.74,SSW,199,4.0,7.0,95,0.14,,,0.44,44.0,meteohub,2013-05-11 22:17:00,
2013-05-11 18:22:00,61.3,59.9,29.74,South,169,5.0,7.0,95,0.13,,,0.44,46.0,meteohub,2013-05-11 22:22:00,
2013-05-11 18:27:00,61.3,59.9,29.74,South,174,7.0,9.0,95,0.13,,,0.45,40.0,meteohub,2013-05-11 22:27:00,
2013-05-11 18:32:00,61.5,60.1,29.74,South,174,2.0,9.0,95,0.12,,,0.45,35.0,meteohub,2013-05-11 22:32:00,
2013-05-11 18:37:00,61.5,60.1,29.73,South,181,3.0,9.0,95,0.11,,,0.45,51.0,meteohub,2013-05-11 22:37:00,
2013-05-11 18:42:00,61.5,60.1,29.73,South,170,5.0,9.0,95,0.08,,,0.45,70.0,meteohub,2013-05-11 22:42:00,
2013-05-11 18:47:00,61.5,60.1,29.73,South,184,5.0,10.0,95,0.08,,,0.46,63.0,meteohub,2013-05-11 22:47:00,
2013-05-11 18:52:00,61.3,59.9,29.73,South,170,2.0,10.0,95,0.07,,,0.46,39.0,meteohub,2013-05-11 22:52:00,
2013-05-11 18:57:00,61.3,60.3,29.72,SSE,155,2.0,10.0,96,0.06,,,0.46,19.0,meteohub,2013-05-11 22:57:00,
2013-05-11 19:02:00,61.2,59.7,29.72,SSE,161,11.0,11.0,95,0.05,,,0.46,21.0,meteohub,2013-05-11 23:02:00,
2013-05-11 19:07:00,60.6,59.2,29.72,South,177,6.0,12.0,95,0.04,,,0.46,23.0,meteohub,2013-05-11 23:07:00,
2013-05-11 19:12:00,60.3,58.8,29.72,South,184,6.0,12.0,95,0.03,,,0.46,25.0,meteohub,2013-05-11 23:12:00,
2013-05-11 19:17:00,60.1,58.6,29.72,SE,136,5.0,12.0,95,0.02,,,0.46,21.0,meteohub,2013-05-11 23:17:00,
2013-05-11 19:22:00,59.7,58.3,29.72,South,181,5.0,10.0,95,0.02,,,0.46,19.0,meteohub,2013-05-11 23:22:00,
2013-05-11 19:27:00,59.4,57.9,29.71,SSE,164,4.0,10.0,95,0.01,,,0.46,16.0,meteohub,2013-05-11 23:27:00,
2013-05-11 19:32:00,59.2,58.1,29.71,SSE,158,2.0,10.0,96,0.01,,,0.46,9.0,meteohub,2013-05-11 23:32:00,
2013-05-11 19:37:00,59.0,57.9,29.71,SSE,152,5.0,12.0,96,0.01,,,0.46,9.0,meteohub,2013-05-11 23:37:00,
2013-05-11 19:42:00,59.0,57.9,29.71,SE,142,4.0,12.0,96,0.01,,,0.46,7.0,meteohub,2013-05-11 23:42:00,
2013-05-11 19:47:00,58.8,57.7,29.72,South,170,4.0,12.0,96,0.00,,,0.46,0.0,meteohub,2013-05-11 23:47:00,
2013-05-11 19:52:00,58.8,57.7,29.72,SW,224,3.0,10.0,96,0.00,,,0.46,0.0,meteohub,2013-05-11 23:52:00,
2013-05-11 19:57:00,58.8,57.7,29.73,SSW,210,6.0,10.0,96,0.00,,,0.46,0.0,meteohub,2013-05-11 23:57:00,
2013-05-11 20:02:00,58.8,57.7,29.73,WSW,242,3.0,10.0,96,0.00,,,0.46,0.0,meteohub,2013-05-12 00:02:00,
2013-05-11 20:07:00,58.6,57.6,29.73,South,182,4.0,12.0,96,0.00,,,0.00,0.0,meteohub,2013-05-12 00:07:00,
2013-05-11 20:12:00,58.3,57.2,29.73,South,181,3.0,12.0,96,0.00,,,0.00,0.0,meteohub,2013-05-12 00:12:00,
2013-05-11 20:17:00,58.5,57.4,29.73,SW,215,1.0,9.0,96,0.00,,,0.00,0.0,meteohub,2013-05-12 00:17:00,
2013-05-11 20:22:00,58.5,57.4,29.73,South,175,0.0,9.0,96,0.00,,,0.00,0.0,meteohub,2013-05-12 00:22:00,
2013-05-11 20:27:00,58.5,57.4,29.73,South,186,0.0,5.0,96,0.00,,,0.00,0.0,meteohub,2013-05-12 00:27:00,
2013-05-11 20:32:00,58.5,57.4,29.73,South,186,1.0,5.0,96,0.00,,,0.00,0.0,meteohub,2013-05-12 00:32:00,
2013-05-11 20:37:00,58.6,57.6,29.73,South,186,1.0,5.0,96,0.00,,,0.00,0.0,meteohub,2013-05-12 00:37:00,
2013-05-11 20:42:00,58.6,57.6,29.72,WNW,293,2.0,3.0,96,0.00,,,0.00,0.0,meteohub,2013-05-12 00:42:00,
2013-05-11 20:47:00,58.6,57.6,29.72,WNW,293,0.0,6.0,96,0.00,,,0.00,0.0,meteohub,2013-05-12 00:47:00,
2013-05-11 20:52:00,58.6,57.6,29.72,WNW,293,0.0,6.0,96,0.00,,,0.00,0.0,meteohub,2013-05-12 00:52:00,
2013-05-11 20:57:00,59.0,57.9,29.72,WNW,293,0.0,6.0,96,0.00,,,0.00,0.0,meteohub,2013-05-12 00:57:00,
2013-05-11 21:02:00,58.8,57.7,29.72,WNW,293,1.0,4.0,96,0.00,,,0.00,0.0,meteohub,2013-05-12 01:02:00,
2013-05-11 21:07:00,58.8,57.7,29.72,WNW,285,0.0,4.0,96,0.00,,,0.00,0.0,meteohub,2013-05-12 01:07:00,
2013-05-11 21:12:00,58.8,57.7,29.72,WNW,282,0.0,4.0,96,0.00,,,0.00,0.0,meteohub,2013-05-12 01:12:00,
2013-05-11 21:17:00,58.8,57.7,29.72,WNW,282,1.0,4.0,96,0.00,,,0.00,0.0,meteohub,2013-05-12 01:17:00,
2013-05-11 21:22:00,58.8,57.7,29.73,South,179,1.0,4.0,96,0.00,,,0.00,0.0,meteohub,2013-05-12 01:22:00,
2013-05-11 21:27:00,58.8,57.7,29.73,South,173,0.0,4.0,96,0.00,,,0.00,0.0,meteohub,2013-05-12 01:27:00,
2013-05-11 21:32:00,58.8,57.7,29.72,SSE,150,4.0,4.0,96,0.00,,,0.00,0.0,meteohub,2013-05-12 01:32:00,
2013-05-11 21:37:00,58.8,57.7,29.73,SW,220,3.0,6.0,96,0.00,,,0.00,0.0,meteohub,2013-05-12 01:37:00,
2013-05-11 21:42:00,58.8,57.7,29.71,SSE,148,1.0,6.0,96,0.00,,,0.00,0.0,meteohub,2013-05-12 01:42:00,
2013-05-11 21:48:00,58.8,57.7,29.72,South,173,0.0,6.0,96,0.00,,,0.00,0.0,meteohub,2013-05-12 01:48:00,
2013-05-11 21:53:00,58.6,57.6,29.72,SSW,196,1.0,7.0,96,0.00,,,0.00,0.0,meteohub,2013-05-12 01:53:00,
2013-05-11 21:58:00,58.8,57.9,29.72,SSW,196,0.0,7.0,97,0.00,,,0.00,0.0,meteohub,2013-05-12 01:58:00,
2013-05-11 22:03:00,58.8,57.7,29.72,SSW,196,3.0,7.0,96,0.00,,,0.00,0.0,meteohub,2013-05-12 02:03:00,
2013-05-11 22:08:00,58.8,57.7,29.73,SSW,196,2.0,5.0,96,0.00,,,0.00,0.0,meteohub,2013-05-12 02:08:00,
2013-05-11 22:13:00,58.6,57.6,29.72,SSW,196,0.0,5.0,96,0.00,,,0.00,0.0,meteohub,2013-05-12 02:13:00,
2013-05-11 22:18:00,58.8,57.9,29.72,SSW,196,0.0,5.0,97,0.00,,,0.00,0.0,meteohub,2013-05-12 02:18:00,
2013-05-11 22:23:00,58.8,57.9,29.72,SSW,196,0.0,4.0,97,0.00,,,0.00,0.0,meteohub,2013-05-12 02:23:00,
2013-05-11 22:29:00,58.8,57.9,29.72,SSW,196,1.0,3.0,97,0.00,,,0.00,0.0,meteohub,2013-05-12 02:29:00,
2013-05-11 22:34:00,59.0,58.1,29.72,SSW,196,0.0,3.0,97,0.00,,,0.00,0.0,meteohub,2013-05-12 02:34:00,
2013-05-11 22:39:00,59.2,58.3,29.71,SSW,196,0.0,2.0,97,0.00,,,0.00,0.0,meteohub,2013-05-12 02:39:00,
2013-05-11 22:44:00,59.2,58.3,29.71,SSW,196,0.0,2.0,97,0.00,,,0.00,0.0,meteohub,2013-05-12 02:44:00,
2013-05-11 22:49:00,59.2,58.3,29.71,SSW,196,0.0,3.0,97,0.00,,,0.00,0.0,meteohub,2013-05-12 02:49:00,
2013-05-11 22:54:00,59.2,58.3,29.71,SSW,196,0.0,3.0,97,0.00,,,0.00,0.0,meteohub,2013-05-12 02:54:00,
2013-05-11 22:59:00,59.2,58.3,29.70,SSW,196,0.0,3.0,97,0.00,,,0.00,0.0,meteohub,2013-05-12 02:59:00,
2013-05-11 23:05:00,59.4,58.5,29.70,SSW,196,0.0,2.0,97,0.00,,,0.00,0.0,meteohub,2013-05-12 03:05:00,
2013-05-11 23:10:00,59.4,58.5,29.70,SSW,196,0.0,1.0,97,0.00,,,0.00,0.0,meteohub,2013-05-12 03:10:00,
2013-05-11 23:15:00,59.4,58.5,29.70,SSW,196,0.0,1.0,97,0.00,,,0.00,0.0,meteohub,2013-05-12 03:15:00,
2013-05-11 23:20:00,59.5,58.6,29.69,SSW,196,0.0,1.0,97,0.00,,,0.00,0.0,meteohub,2013-05-12 03:20:00,
2013-05-11 23:25:00,59.5,58.6,29.70,SSW,196,0.0,2.0,97,0.00,,,0.00,0.0,meteohub,2013-05-12 03:25:00,
2013-05-11 23:30:00,59.4,58.5,29.70,SSW,196,0.0,2.0,97,0.00,,,0.00,0.0,meteohub,2013-05-12 03:30:00,
2013-05-11 23:35:00,59.4,58.5,29.69,SSW,196,0.0,1.0,97,0.00,,,0.00,0.0,meteohub,2013-05-12 03:35:00,
2013-05-11 23:40:00,59.4,58.5,29.69,SSW,196,0.0,1.0,97,0.00,,,0.00,0.0,meteohub,2013-05-12 03:40:00,
2013-05-11 23:46:00,59.4,58.5,29.69,SSW,196,0.0,1.0,97,0.00,,,0.00,0.0,meteohub,2013-05-12 03:46:00,
2013-05-11 23:51:00,59.4,58.5,29.69,SSW,196,0.0,2.0,97,0.00,,,0.00,0.0,meteohub,2013-05-12 03:51:00,
2013-05-11 23:56:00,59.4,58.5,29.69,SSW,196,1.0,2.0,97,0.00,,,0.00,0.0,meteohub,2013-05-12 03:56:00,